sensor_id;sensor_type;location;lat;lon;timestamp;pressure;altitude;pressure_sealevel;temperature;humidity
59391;BME280;53405;57.012;40.984;2023-04-06T00:01:27;100981.53;;;3.28;82.41
59391;BME280;53405;57.012;40.984;2023-04-06T00:03:55;100985.69;;;3.31;82.28
59391;BME280;53405;57.012;40.984;2023-04-06T00:06:22;100986.75;;;3.28;82.29
59391;BME280;53405;57.012;40.984;2023-04-06T00:08:49;100983.41;;;3.26;82.64
59391;BME280;53405;57.012;40.984;2023-04-06T00:11:17;100985.06;;;3.27;82.73
59391;BME280;53405;57.012;40.984;2023-04-06T00:13:44;100986.00;;;3.26;82.81
59391;BME280;53405;57.012;40.984;2023-04-06T00:16:12;100991.63;;;3.20;82.90
59391;BME280;53405;57.012;40.984;2023-04-06T00:18:39;100993.63;;;3.16;83.04
59391;BME280;53405;57.012;40.984;2023-04-06T00:21:07;100999.84;;;3.14;83.12
59391;BME280;53405;57.012;40.984;2023-04-06T00:23:34;100996.66;;;3.10;83.24
59391;BME280;53405;57.012;40.984;2023-04-06T00:26:02;100990.09;;;3.04;83.40
59391;BME280;53405;57.012;40.984;2023-04-06T00:28:29;101000.72;;;3.01;83.69
59391;BME280;53405;57.012;40.984;2023-04-06T00:30:57;100999.25;;;2.97;83.72
59391;BME280;53405;57.012;40.984;2023-04-06T00:33:24;100995.72;;;2.98;83.75
59391;BME280;53405;57.012;40.984;2023-04-06T00:35:51;100995.81;;;2.97;83.76
59391;BME280;53405;57.012;40.984;2023-04-06T00:38:19;100993.84;;;2.87;84.10
59391;BME280;53405;57.012;40.984;2023-04-06T00:40:46;100969.97;;;2.68;84.21
59391;BME280;53405;57.012;40.984;2023-04-06T00:43:14;100994.47;;;2.78;84.29
59391;BME280;53405;57.012;40.984;2023-04-06T00:45:42;100973.84;;;2.62;84.53
59391;BME280;53405;57.012;40.984;2023-04-06T00:48:10;100968.94;;;2.58;84.66
59391;BME280;53405;57.012;40.984;2023-04-06T00:50:37;100949.88;;;2.44;84.75
59391;BME280;53405;57.012;40.984;2023-04-06T00:53:05;100981.75;;;2.61;84.97
59391;BME280;53405;57.012;40.984;2023-04-06T00:55:32;100995.38;;;2.64;84.91
59391;BME280;53405;57.012;40.984;2023-04-06T00:58:02;100996.00;;;2.68;84.73
59391;BME280;53405;57.012;40.984;2023-04-06T01:00:40;100989.34;;;2.64;84.84
59391;BME280;53405;57.012;40.984;2023-04-06T01:03:13;100955.72;;;2.35;85.00
59391;BME280;53405;57.012;40.984;2023-04-06T01:05:42;100952.25;;;2.34;85.18
59391;BME280;53405;57.012;40.984;2023-04-06T01:08:18;100988.28;;;2.53;85.13
59391;BME280;53405;57.012;40.984;2023-04-06T01:10:46;100994.22;;;2.56;84.92
59391;BME280;53405;57.012;40.984;2023-04-06T01:13:23;101001.38;;;2.52;84.93
59391;BME280;53405;57.012;40.984;2023-04-06T01:15:53;100996.19;;;2.52;85.02
59391;BME280;53405;57.012;40.984;2023-04-06T01:18:48;100998.88;;;2.50;85.07
59391;BME280;53405;57.012;40.984;2023-04-06T01:21:18;100965.75;;;2.27;85.18
59391;BME280;53405;57.012;40.984;2023-04-06T01:24:02;101003.56;;;2.45;85.27
59391;BME280;53405;57.012;40.984;2023-04-06T01:26:40;100996.06;;;2.41;85.40
59391;BME280;53405;57.012;40.984;2023-04-06T01:29:09;100998.56;;;2.42;85.35
59391;BME280;53405;57.012;40.984;2023-04-06T01:31:37;101007.38;;;2.40;85.53
59391;BME280;53405;57.012;40.984;2023-04-06T01:34:05;100990.22;;;2.37;85.20
59391;BME280;53405;57.012;40.984;2023-04-06T01:36:33;101000.09;;;2.32;85.44
59391;BME280;53405;57.012;40.984;2023-04-06T01:39:14;100996.03;;;2.28;85.43
59391;BME280;53405;57.012;40.984;2023-04-06T01:41:41;100985.41;;;2.18;85.36
59391;BME280;53405;57.012;40.984;2023-04-06T01:44:09;100997.25;;;2.22;85.35
59391;BME280;53405;57.012;40.984;2023-04-06T01:46:37;101000.78;;;2.21;85.42
59391;BME280;53405;57.012;40.984;2023-04-06T01:49:06;101015.00;;;2.15;85.61
59391;BME280;53405;57.012;40.984;2023-04-06T01:51:39;100998.78;;;2.12;85.47
59391;BME280;53405;57.012;40.984;2023-04-06T01:54:10;100998.97;;;2.09;85.50
59391;BME280;53405;57.012;40.984;2023-04-06T01:57:04;101002.59;;;2.06;85.71
59391;BME280;53405;57.012;40.984;2023-04-06T01:59:58;101003.09;;;1.98;85.72
59391;BME280;53405;57.012;40.984;2023-04-06T02:02:43;101006.72;;;1.96;85.67
59391;BME280;53405;57.012;40.984;2023-04-06T02:05:19;101011.06;;;1.95;85.84
59391;BME280;53405;57.012;40.984;2023-04-06T02:07:48;101004.63;;;1.88;85.83
59391;BME280;53405;57.012;40.984;2023-04-06T02:10:21;101007.94;;;1.90;85.85
59391;BME280;53405;57.012;40.984;2023-04-06T02:12:49;101015.00;;;1.88;85.86
59391;BME280;53405;57.012;40.984;2023-04-06T02:15:23;101010.19;;;1.82;85.87
59391;BME280;53405;57.012;40.984;2023-04-06T02:17:51;101024.66;;;1.86;85.57
59391;BME280;53405;57.012;40.984;2023-04-06T02:20:18;101020.59;;;1.82;85.62
59391;BME280;53405;57.012;40.984;2023-04-06T02:22:45;101020.59;;;1.82;85.60
59391;BME280;53405;57.012;40.984;2023-04-06T02:25:12;101021.69;;;1.78;85.70
59391;BME280;53405;57.012;40.984;2023-04-06T02:27:40;101024.47;;;1.75;85.67
59391;BME280;53405;57.012;40.984;2023-04-06T02:30:08;101025.34;;;1.75;85.68
59391;BME280;53405;57.012;40.984;2023-04-06T02:32:35;101032.28;;;1.75;85.69
59391;BME280;53405;57.012;40.984;2023-04-06T02:35:04;101029.88;;;1.72;85.53
59391;BME280;53405;57.012;40.984;2023-04-06T02:37:33;101032.38;;;1.73;85.32
59391;BME280;53405;57.012;40.984;2023-04-06T02:40:00;101010.97;;;1.55;85.33
59391;BME280;53405;57.012;40.984;2023-04-06T02:42:30;101032.00;;;1.65;85.31
59391;BME280;53405;57.012;40.984;2023-04-06T02:44:57;101037.28;;;1.63;85.37
59391;BME280;53405;57.012;40.984;2023-04-06T02:47:30;101023.88;;;1.57;85.43
59391;BME280;53405;57.012;40.984;2023-04-06T02:49:57;101033.16;;;1.61;85.27
59391;BME280;53405;57.012;40.984;2023-04-06T02:52:25;101039.06;;;1.63;85.16
59391;BME280;53405;57.012;40.984;2023-04-06T02:54:53;101003.75;;;1.46;84.88
59391;BME280;53405;57.012;40.984;2023-04-06T02:57:26;101042.41;;;1.65;84.63
59391;BME280;53405;57.012;40.984;2023-04-06T02:59:53;101049.38;;;1.65;84.60
59391;BME280;53405;57.012;40.984;2023-04-06T03:02:29;101047.50;;;1.67;84.56
59391;BME280;53405;57.012;40.984;2023-04-06T03:05:06;101056.16;;;1.67;84.43
59391;BME280;53405;57.012;40.984;2023-04-06T03:07:38;101050.09;;;1.67;84.29
59391;BME280;53405;57.012;40.984;2023-04-06T03:10:09;101032.75;;;1.53;84.39
59391;BME280;53405;57.012;40.984;2023-04-06T03:12:37;101019.78;;;1.53;84.21
59391;BME280;53405;57.012;40.984;2023-04-06T03:15:34;101050.09;;;1.67;83.81
59391;BME280;53405;57.012;40.984;2023-04-06T03:18:11;101056.25;;;1.66;83.91
59391;BME280;53405;57.012;40.984;2023-04-06T03:20:42;101043.88;;;1.69;83.81
59391;BME280;53405;57.012;40.984;2023-04-06T03:23:10;101054.38;;;1.68;83.68
59391;BME280;53405;57.012;40.984;2023-04-06T03:25:41;101053.41;;;1.69;83.55
59391;BME280;53405;57.012;40.984;2023-04-06T03:28:13;101053.22;;;1.72;83.31
59391;BME280;53405;57.012;40.984;2023-04-06T03:30:49;101062.53;;;1.76;83.07
59391;BME280;53405;57.012;40.984;2023-04-06T03:33:22;101052.84;;;1.78;83.03
59391;BME280;53405;57.012;40.984;2023-04-06T03:35:53;101063.06;;;1.81;82.86
59391;BME280;53405;57.012;40.984;2023-04-06T03:38:24;101056.03;;;1.83;82.55
59391;BME280;53405;57.012;40.984;2023-04-06T03:40:53;101061.84;;;1.87;82.46
59391;BME280;53405;57.012;40.984;2023-04-06T03:43:24;101040.81;;;1.77;82.07
59391;BME280;53405;57.012;40.984;2023-04-06T03:45:52;101065.94;;;1.91;81.63
59391;BME280;53405;57.012;40.984;2023-04-06T03:48:19;101057.28;;;1.90;81.50
59391;BME280;53405;57.012;40.984;2023-04-06T03:50:47;101068.13;;;1.97;81.27
59391;BME280;53405;57.012;40.984;2023-04-06T03:53:14;101061.47;;;1.93;80.60
59391;BME280;53405;57.012;40.984;2023-04-06T03:55:42;101075.00;;;1.98;80.61
59391;BME280;53405;57.012;40.984;2023-04-06T03:58:09;101079.38;;;1.97;80.55
59391;BME280;53405;57.012;40.984;2023-04-06T04:00:37;101075.63;;;2.02;80.29
59391;BME280;53405;57.012;40.984;2023-04-06T04:03:04;101083.06;;;2.08;79.90
59391;BME280;53405;57.012;40.984;2023-04-06T04:05:32;101076.41;;;2.04;79.35
59391;BME280;53405;57.012;40.984;2023-04-06T04:07:59;101074.63;;;2.04;79.32
59391;BME280;53405;57.012;40.984;2023-04-06T04:10:26;101078.25;;;2.02;79.47
59391;BME280;53405;57.012;40.984;2023-04-06T04:12:54;101080.47;;;2.08;79.32
59391;BME280;53405;57.012;40.984;2023-04-06T04:15:22;101071.41;;;2.01;78.56
59391;BME280;53405;57.012;40.984;2023-04-06T04:17:49;101077.66;;;2.11;78.47
59391;BME280;53405;57.012;40.984;2023-04-06T04:20:17;101081.94;;;2.12;77.91
59391;BME280;53405;57.012;40.984;2023-04-06T04:22:44;101087.59;;;2.19;77.50
59391;BME280;53405;57.012;40.984;2023-04-06T04:25:13;101082.28;;;2.20;77.03
59391;BME280;53405;57.012;40.984;2023-04-06T04:27:45;101089.91;;;2.23;77.14
59391;BME280;53405;57.012;40.984;2023-04-06T04:30:13;101079.22;;;2.28;76.51
59391;BME280;53405;57.012;40.984;2023-04-06T04:32:41;101074.94;;;2.27;76.25
59391;BME280;53405;57.012;40.984;2023-04-06T04:35:09;101090.47;;;2.41;75.67
59391;BME280;53405;57.012;40.984;2023-04-06T04:37:40;101091.03;;;2.46;75.01
59391;BME280;53405;57.012;40.984;2023-04-06T04:40:09;101076.56;;;2.42;74.46
59391;BME280;53405;57.012;40.984;2023-04-06T04:42:49;101097.63;;;2.65;74.14
59391;BME280;53405;57.012;40.984;2023-04-06T04:45:27;101087.22;;;2.65;73.58
59391;BME280;53405;57.012;40.984;2023-04-06T04:47:56;101067.78;;;2.58;72.96
59391;BME280;53405;57.012;40.984;2023-04-06T04:50:28;101105.31;;;2.81;72.65
59391;BME280;53405;57.012;40.984;2023-04-06T04:52:57;101092.91;;;2.84;72.04
59391;BME280;53405;57.012;40.984;2023-04-06T04:55:26;101103.13;;;2.87;71.80
59391;BME280;53405;57.012;40.984;2023-04-06T04:57:57;101106.78;;;2.98;71.27
59391;BME280;53405;57.012;40.984;2023-04-06T05:00:43;101100.13;;;3.06;70.54
59391;BME280;53405;57.012;40.984;2023-04-06T05:03:18;101093.16;;;3.07;70.17
59391;BME280;53405;57.012;40.984;2023-04-06T05:05:54;101105.88;;;3.24;69.92
59391;BME280;53405;57.012;40.984;2023-04-06T05:08:24;101108.72;;;3.34;69.52
59391;BME280;53405;57.012;40.984;2023-04-06T05:10:52;101111.63;;;3.42;69.26
59391;BME280;53405;57.012;40.984;2023-04-06T05:13:20;101113.59;;;3.52;68.46
59391;BME280;53405;57.012;40.984;2023-04-06T05:15:50;101116.41;;;3.61;67.60
59391;BME280;53405;57.012;40.984;2023-04-06T05:18:30;101118.16;;;3.61;67.19
59391;BME280;53405;57.012;40.984;2023-04-06T05:20:58;101121.91;;;3.70;66.76
59391;BME280;53405;57.012;40.984;2023-04-06T05:23:35;101129.81;;;3.81;67.60
59391;BME280;53405;57.012;40.984;2023-04-06T05:26:02;101131.00;;;3.77;66.37
59391;BME280;53405;57.012;40.984;2023-04-06T05:28:31;101133.91;;;3.85;66.49
59391;BME280;53405;57.012;40.984;2023-04-06T05:31:01;101124.19;;;3.87;65.75
59391;BME280;53405;57.012;40.984;2023-04-06T05:33:35;101137.94;;;4.02;66.01
59391;BME280;53405;57.012;40.984;2023-04-06T05:36:09;101140.56;;;4.02;65.36
59391;BME280;53405;57.012;40.984;2023-04-06T05:38:40;101131.66;;;4.05;64.92
59391;BME280;53405;57.012;40.984;2023-04-06T05:41:25;101119.38;;;3.94;64.51
59391;BME280;53405;57.012;40.984;2023-04-06T05:43:53;101129.38;;;4.00;64.30
59391;BME280;53405;57.012;40.984;2023-04-06T05:46:22;101135.84;;;4.07;64.45
59391;BME280;53405;57.012;40.984;2023-04-06T05:48:52;101136.13;;;4.15;64.18
59391;BME280;53405;57.012;40.984;2023-04-06T05:51:24;101148.34;;;4.15;63.97
59391;BME280;53405;57.012;40.984;2023-04-06T05:53:52;101144.16;;;4.12;63.49
59391;BME280;53405;57.012;40.984;2023-04-06T05:56:19;101109.59;;;3.97;63.90
59391;BME280;53405;57.012;40.984;2023-04-06T05:58:47;101145.16;;;4.36;63.27
59391;BME280;53405;57.012;40.984;2023-04-06T06:01:20;101145.00;;;4.50;62.14
59391;BME280;53405;57.012;40.984;2023-04-06T06:03:48;101143.47;;;4.59;61.73
59391;BME280;53405;57.012;40.984;2023-04-06T06:06:16;101133.94;;;4.70;61.72
59391;BME280;53405;57.012;40.984;2023-04-06T06:09:02;101116.50;;;4.71;61.43
59391;BME280;53405;57.012;40.984;2023-04-06T06:11:34;101119.16;;;4.82;60.28
59391;BME280;53405;57.012;40.984;2023-04-06T06:14:03;101139.06;;;5.07;60.48
59391;BME280;53405;57.012;40.984;2023-04-06T06:16:33;101146.44;;;5.14;59.57
59391;BME280;53405;57.012;40.984;2023-04-06T06:19:01;101129.59;;;5.18;58.62
59391;BME280;53405;57.012;40.984;2023-04-06T06:21:30;101132.81;;;5.33;57.74
59391;BME280;53405;57.012;40.984;2023-04-06T06:23:58;101135.31;;;5.34;57.08
59391;BME280;53405;57.012;40.984;2023-04-06T06:26:26;101129.03;;;5.25;57.40
59391;BME280;53405;57.012;40.984;2023-04-06T06:28:54;101138.44;;;5.39;57.01
59391;BME280;53405;57.012;40.984;2023-04-06T06:31:23;101116.09;;;5.24;56.58
59391;BME280;53405;57.012;40.984;2023-04-06T06:33:53;101150.09;;;5.58;57.20
59391;BME280;53405;57.012;40.984;2023-04-06T06:36:21;101140.13;;;5.63;55.90
59391;BME280;53405;57.012;40.984;2023-04-06T06:38:49;101143.47;;;5.76;55.51
59391;BME280;53405;57.012;40.984;2023-04-06T06:41:20;101148.31;;;5.92;55.20
59391;BME280;53405;57.012;40.984;2023-04-06T06:43:48;101141.47;;;6.03;55.20
59391;BME280;53405;57.012;40.984;2023-04-06T06:46:17;101145.00;;;6.24;54.38
59391;BME280;53405;57.012;40.984;2023-04-06T06:48:44;101145.69;;;6.38;53.72
59391;BME280;53405;57.012;40.984;2023-04-06T06:51:11;101156.63;;;6.43;53.22
59391;BME280;53405;57.012;40.984;2023-04-06T06:53:40;101141.97;;;6.51;53.37
59391;BME280;53405;57.012;40.984;2023-04-06T06:56:07;101140.47;;;6.38;51.70
59391;BME280;53405;57.012;40.984;2023-04-06T06:58:35;101147.13;;;6.42;51.32
59391;BME280;53405;57.012;40.984;2023-04-06T07:01:02;101136.78;;;6.40;50.66
59391;BME280;53405;57.012;40.984;2023-04-06T07:03:30;101139.16;;;6.43;50.63
59391;BME280;53405;57.012;40.984;2023-04-06T07:05:59;101141.13;;;6.51;50.00
59391;BME280;53405;57.012;40.984;2023-04-06T07:08:26;101135.41;;;6.57;49.64
59391;BME280;53405;57.012;40.984;2023-04-06T07:10:53;101139.53;;;6.71;49.73
59391;BME280;53405;57.012;40.984;2023-04-06T07:13:23;101133.28;;;6.83;48.95
59391;BME280;53405;57.012;40.984;2023-04-06T07:15:54;101119.50;;;6.81;48.51
59391;BME280;53405;57.012;40.984;2023-04-06T07:18:22;101138.81;;;7.01;48.20
59391;BME280;53405;57.012;40.984;2023-04-06T07:20:49;101144.53;;;6.95;47.50
59391;BME280;53405;57.012;40.984;2023-04-06T07:23:17;101128.31;;;7.01;47.76
59391;BME280;53405;57.012;40.984;2023-04-06T07:25:45;101131.47;;;7.16;47.07
59391;BME280;53405;57.012;40.984;2023-04-06T07:28:12;101135.94;;;7.26;46.24
59391;BME280;53405;57.012;40.984;2023-04-06T07:30:40;101146.06;;;7.30;46.07
59391;BME280;53405;57.012;40.984;2023-04-06T07:33:09;101139.13;;;7.29;45.46
59391;BME280;53405;57.012;40.984;2023-04-06T07:35:37;101118.25;;;7.18;44.70
59391;BME280;53405;57.012;40.984;2023-04-06T07:38:06;101135.09;;;7.46;44.53
59391;BME280;53405;57.012;40.984;2023-04-06T07:40:34;101131.13;;;7.52;44.12
59391;BME280;53405;57.012;40.984;2023-04-06T07:43:03;101108.69;;;7.59;44.35
59391;BME280;53405;57.012;40.984;2023-04-06T07:45:30;101144.41;;;7.91;41.92
59391;BME280;53405;57.012;40.984;2023-04-06T07:48:00;101141.31;;;7.76;41.38
59391;BME280;53405;57.012;40.984;2023-04-06T07:50:28;101104.72;;;7.65;40.63
59391;BME280;53405;57.012;40.984;2023-04-06T07:52:56;101138.34;;;7.90;39.00
59391;BME280;53405;57.012;40.984;2023-04-06T07:55:24;101144.16;;;7.94;41.42
59391;BME280;53405;57.012;40.984;2023-04-06T07:57:52;101144.50;;;8.10;39.95
59391;BME280;53405;57.012;40.984;2023-04-06T08:00:20;101147.94;;;8.11;38.60
59391;BME280;53405;57.012;40.984;2023-04-06T08:02:47;101142.03;;;8.19;37.98
59391;BME280;53405;57.012;40.984;2023-04-06T08:05:15;101139.41;;;8.19;36.92
59391;BME280;53405;57.012;40.984;2023-04-06T08:07:42;101141.41;;;8.05;35.77
59391;BME280;53405;57.012;40.984;2023-04-06T08:10:10;101138.81;;;8.15;36.87
59391;BME280;53405;57.012;40.984;2023-04-06T08:12:40;101137.06;;;8.35;36.25
59391;BME280;53405;57.012;40.984;2023-04-06T08:15:08;101141.56;;;8.64;35.73
59391;BME280;53405;57.012;40.984;2023-04-06T08:17:35;101133.72;;;8.74;34.99
59391;BME280;53405;57.012;40.984;2023-04-06T08:20:02;101135.91;;;8.98;35.34
59391;BME280;53405;57.012;40.984;2023-04-06T08:22:30;101120.97;;;8.98;35.62
59391;BME280;53405;57.012;40.984;2023-04-06T08:24:57;101123.44;;;9.19;34.21
59391;BME280;53405;57.012;40.984;2023-04-06T08:27:25;101136.38;;;9.40;33.94
59391;BME280;53405;57.012;40.984;2023-04-06T08:29:53;101136.56;;;9.29;33.59
59391;BME280;53405;57.012;40.984;2023-04-06T08:32:20;101130.47;;;9.38;33.36
59391;BME280;53405;57.012;40.984;2023-04-06T08:34:48;101139.06;;;9.21;33.26
59391;BME280;53405;57.012;40.984;2023-04-06T08:37:15;101132.53;;;9.25;32.63
59391;BME280;53405;57.012;40.984;2023-04-06T08:39:42;101139.44;;;9.36;32.40
59391;BME280;53405;57.012;40.984;2023-04-06T08:42:20;101136.75;;;9.65;32.36
59391;BME280;53405;57.012;40.984;2023-04-06T08:44:51;101127.38;;;9.53;32.28
59391;BME280;53405;57.012;40.984;2023-04-06T08:47:19;101136.31;;;9.60;33.11
59391;BME280;53405;57.012;40.984;2023-04-06T08:49:48;101142.97;;;9.64;32.59
59391;BME280;53405;57.012;40.984;2023-04-06T08:52:17;101133.22;;;9.84;32.78
59391;BME280;53405;57.012;40.984;2023-04-06T08:54:45;101131.88;;;10.26;31.96
59391;BME280;53405;57.012;40.984;2023-04-06T08:57:12;101099.03;;;10.48;32.36
59391;BME280;53405;57.012;40.984;2023-04-06T08:59:40;101113.66;;;10.60;32.12
59391;BME280;53405;57.012;40.984;2023-04-06T09:02:15;101138.19;;;10.79;32.10
59391;BME280;53405;57.012;40.984;2023-04-06T09:04:48;101100.19;;;10.45;30.86
59391;BME280;53405;57.012;40.984;2023-04-06T09:07:16;101126.44;;;10.55;31.30
59391;BME280;53405;57.012;40.984;2023-04-06T09:09:44;101130.72;;;10.56;30.84
59391;BME280;53405;57.012;40.984;2023-04-06T09:12:24;101132.03;;;10.52;30.60
59391;BME280;53405;57.012;40.984;2023-04-06T09:14:52;101131.03;;;10.35;31.10
59391;BME280;53405;57.012;40.984;2023-04-06T09:17:23;101129.38;;;10.06;30.72
59391;BME280;53405;57.012;40.984;2023-04-06T09:19:51;101120.09;;;10.02;31.43
59391;BME280;53405;57.012;40.984;2023-04-06T09:22:19;101132.03;;;10.24;31.97
59391;BME280;53405;57.012;40.984;2023-04-06T09:24:47;101126.44;;;10.73;31.61
59391;BME280;53405;57.012;40.984;2023-04-06T09:27:15;101119.13;;;11.03;29.71
59391;BME280;53405;57.012;40.984;2023-04-06T09:29:44;101114.13;;;10.74;30.01
59391;BME280;53405;57.012;40.984;2023-04-06T09:32:12;101120.75;;;10.60;30.39
59391;BME280;53405;57.012;40.984;2023-04-06T09:34:43;101111.25;;;10.49;30.71
59391;BME280;53405;57.012;40.984;2023-04-06T09:37:17;101131.78;;;10.99;32.16
59391;BME280;53405;57.012;40.984;2023-04-06T09:39:45;101123.22;;;11.50;29.93
59391;BME280;53405;57.012;40.984;2023-04-06T09:42:25;101127.50;;;12.28;29.96
59391;BME280;53405;57.012;40.984;2023-04-06T09:44:54;101103.63;;;12.54;27.86
59391;BME280;53405;57.012;40.984;2023-04-06T09:47:22;101126.38;;;12.39;27.66
59391;BME280;53405;57.012;40.984;2023-04-06T09:49:59;101115.97;;;12.21;27.79
59391;BME280;53405;57.012;40.984;2023-04-06T09:52:33;101131.56;;;12.73;28.64
59391;BME280;53405;57.012;40.984;2023-04-06T09:55:05;101118.50;;;12.96;26.77
59391;BME280;53405;57.012;40.984;2023-04-06T09:57:40;101116.28;;;12.26;27.25
59391;BME280;53405;57.012;40.984;2023-04-06T10:00:11;101128.13;;;12.14;28.11
59391;BME280;53405;57.012;40.984;2023-04-06T10:03:14;101119.88;;;12.08;26.42
59391;BME280;53405;57.012;40.984;2023-04-06T10:05:51;101118.44;;;11.27;28.09
59391;BME280;53405;57.012;40.984;2023-04-06T10:08:20;101112.50;;;10.81;28.37
59391;BME280;53405;57.012;40.984;2023-04-06T10:10:50;101096.19;;;10.41;28.20
59391;BME280;53405;57.012;40.984;2023-04-06T10:13:19;101115.75;;;10.75;28.39
59391;BME280;53405;57.012;40.984;2023-04-06T10:15:46;101116.47;;;11.55;29.42
59391;BME280;53405;57.012;40.984;2023-04-06T10:18:14;101109.94;;;11.94;25.08
59391;BME280;53405;57.012;40.984;2023-04-06T10:21:08;101119.38;;;12.05;25.05
59391;BME280;53405;57.012;40.984;2023-04-06T10:23:43;101113.41;;;11.34;25.14
59391;BME280;53405;57.012;40.984;2023-04-06T10:26:17;101110.09;;;11.06;25.22
59391;BME280;53405;57.012;40.984;2023-04-06T10:28:48;101103.47;;;11.28;25.30
59391;BME280;53405;57.012;40.984;2023-04-06T10:31:24;101111.53;;;11.26;25.12
59391;BME280;53405;57.012;40.984;2023-04-06T10:34:01;101110.09;;;12.01;26.47
59391;BME280;53405;57.012;40.984;2023-04-06T10:36:32;101110.56;;;13.05;26.17
59391;BME280;53405;57.012;40.984;2023-04-06T10:39:02;101108.53;;;13.56;25.24
59391;BME280;53405;57.012;40.984;2023-04-06T10:41:44;101102.19;;;13.73;23.71
59391;BME280;53405;57.012;40.984;2023-04-06T10:44:22;101117.31;;;13.24;23.92
59391;BME280;53405;57.012;40.984;2023-04-06T10:46:54;101105.41;;;13.19;23.51
59391;BME280;53405;57.012;40.984;2023-04-06T10:49:22;101094.78;;;13.52;23.20
59391;BME280;53405;57.012;40.984;2023-04-06T10:51:53;101065.06;;;13.42;23.29
59391;BME280;53405;57.012;40.984;2023-04-06T10:54:24;101111.38;;;13.05;25.03
59391;BME280;53405;57.012;40.984;2023-04-06T10:56:52;101015.69;;;13.10;25.94
59391;BME280;53405;57.012;40.984;2023-04-06T10:59:21;101101.13;;;13.35;24.19
59391;BME280;53405;57.012;40.984;2023-04-06T11:01:48;101098.00;;;14.10;24.60
59391;BME280;53405;57.012;40.984;2023-04-06T11:04:20;101065.25;;;13.41;24.20
59391;BME280;53405;57.012;40.984;2023-04-06T11:06:48;101096.47;;;13.29;24.47
59391;BME280;53405;57.012;40.984;2023-04-06T11:09:25;101091.91;;;12.81;24.57
59391;BME280;53405;57.012;40.984;2023-04-06T11:11:53;101097.34;;;13.05;24.70
59391;BME280;53405;57.012;40.984;2023-04-06T11:14:22;101094.78;;;14.00;24.10
59391;BME280;53405;57.012;40.984;2023-04-06T11:16:50;101091.22;;;14.16;25.21
59391;BME280;53405;57.012;40.984;2023-04-06T11:19:18;101087.72;;;14.85;23.27
59391;BME280;53405;57.012;40.984;2023-04-06T11:21:47;101096.78;;;14.76;23.96
59391;BME280;53405;57.012;40.984;2023-04-06T11:24:19;101089.56;;;14.38;23.16
59391;BME280;53405;57.012;40.984;2023-04-06T11:29:21;101090.16;;;13.54;23.97
59391;BME280;53405;57.012;40.984;2023-04-06T11:31:58;101085.28;;;13.18;24.29
59391;BME280;53405;57.012;40.984;2023-04-06T11:34:29;101035.75;;;12.79;24.38
59391;BME280;53405;57.012;40.984;2023-04-06T11:36:59;101084.09;;;13.37;24.47
59391;BME280;53405;57.012;40.984;2023-04-06T11:39:27;101081.56;;;13.92;24.42
59391;BME280;53405;57.012;40.984;2023-04-06T11:42:00;101086.44;;;15.04;24.93
59391;BME280;53405;57.012;40.984;2023-04-06T11:44:40;101082.25;;;15.40;22.92
59391;BME280;53405;57.012;40.984;2023-04-06T11:47:10;101078.47;;;14.43;24.08
59391;BME280;53405;57.012;40.984;2023-04-06T11:49:39;101080.41;;;14.49;25.17
59391;BME280;53405;57.012;40.984;2023-04-06T11:52:19;101071.41;;;14.96;25.53
59391;BME280;53405;57.012;40.984;2023-04-06T11:54:51;101076.47;;;15.66;23.84
59391;BME280;53405;57.012;40.984;2023-04-06T11:57:21;101072.63;;;15.53;22.99
59391;BME280;53405;57.012;40.984;2023-04-06T11:59:52;101067.38;;;15.00;23.95
59391;BME280;53405;57.012;40.984;2023-04-06T12:02:19;101077.69;;;14.80;24.20
59391;BME280;53405;57.012;40.984;2023-04-06T12:04:47;101060.56;;;15.36;24.57
59391;BME280;53405;57.012;40.984;2023-04-06T12:07:14;101074.66;;;15.51;23.92
59391;BME280;53405;57.012;40.984;2023-04-06T12:09:42;101083.22;;;15.68;25.05
59391;BME280;53405;57.012;40.984;2023-04-06T12:12:10;101078.38;;;16.23;23.97
59391;BME280;53405;57.012;40.984;2023-04-06T12:14:37;101076.09;;;16.42;22.79
59391;BME280;53405;57.012;40.984;2023-04-06T12:17:09;101082.16;;;16.14;23.91
59391;BME280;53405;57.012;40.984;2023-04-06T12:19:37;101043.47;;;15.90;24.02
59391;BME280;53405;57.012;40.984;2023-04-06T12:22:05;101070.16;;;15.22;23.55
59391;BME280;53405;57.012;40.984;2023-04-06T12:24:33;101053.25;;;14.85;25.70
59391;BME280;53405;57.012;40.984;2023-04-06T12:27:01;101058.59;;;15.75;25.06
59391;BME280;53405;57.012;40.984;2023-04-06T12:29:34;101065.75;;;15.59;23.79
59391;BME280;53405;57.012;40.984;2023-04-06T12:32:02;101053.22;;;14.93;24.19
59391;BME280;53405;57.012;40.984;2023-04-06T12:34:29;101047.41;;;14.90;24.72
59391;BME280;53405;57.012;40.984;2023-04-06T12:36:57;101067.03;;;15.33;24.37
59391;BME280;53405;57.012;40.984;2023-04-06T12:39:24;101063.66;;;14.49;24.57
59391;BME280;53405;57.012;40.984;2023-04-06T12:41:52;101064.19;;;14.44;25.90
59391;BME280;53405;57.012;40.984;2023-04-06T12:44:20;101074.28;;;15.25;25.08
59391;BME280;53405;57.012;40.984;2023-04-06T12:46:47;101074.38;;;15.61;25.22
59391;BME280;53405;57.012;40.984;2023-04-06T12:49:14;101068.75;;;15.86;25.01
59391;BME280;53405;57.012;40.984;2023-04-06T12:51:43;101061.81;;;15.55;25.40
59391;BME280;53405;57.012;40.984;2023-04-06T12:54:11;101028.31;;;14.79;24.34
59391;BME280;53405;57.012;40.984;2023-04-06T12:56:38;101042.75;;;14.31;25.01
59391;BME280;53405;57.012;40.984;2023-04-06T12:59:06;101025.28;;;14.44;26.23
59391;BME280;53405;57.012;40.984;2023-04-06T13:01:33;101063.47;;;14.96;25.72
59391;BME280;53405;57.012;40.984;2023-04-06T13:04:00;101052.25;;;14.71;26.06
59391;BME280;53405;57.012;40.984;2023-04-06T13:06:28;101050.81;;;14.37;26.60